Pagrindinis puslapis
METAR-TAF:

METAR-TAF

Oro uostai :

Bazelis-Miulūzas-Freiburgas, Prancūzija

platuma: 47-36N, ilguma: 007-31E, Aukštis: 270 m

Dabartinis oras

Ataskaita buvo paskelbta 23 minutes, ne 17:30 UTC
Vėjas 8 kt iš Rytų/Pietryčių
Temperatūra 22°C
Drėgmė 25%
Slėgis 1024 hPa
Matomumas 10 km arba daugiau
nėra debesų žemiau 1500 m ir nėra kamuolinių lietaus debesų

METAR: LFSB 071730Z AUTO 11008KT CAVOK 22/01 Q1024 NOSIG

Laikas: 19:53 (17:53 UTC)

Prognozė

Ataskaita buvo paskelbta 53 minutes, ne 17:00 UTC
Prognozė galioja nuo 07 metu 18 UTC su 08 metu 18 UTC
Vėjas 7 kt iš Rytų
Matomumas 10 km arba daugiau
nėra debesų žemiau 1500 m ir nėra kamuolinių lietaus debesų
Tapsmas
nuo 07 metu 18 UTC su 07 metu 20 UTC
Vėjas 3 kt nuo kintamojo kryptimis
Laikinai
nuo 08 metu 12 UTC su 08 metu 18 UTC
Vėjas 5 kt iš Šiaurės

TAF: LFSB 071700Z 0718/0818 08007KT CAVOK BECMG 0718/0720 VRB03KT TEMPO 0812/0818 35005KT

Orai ataskaitas ir orų prognozės (METAR, TAF).

turimą stotys yra geltonos ir raudonos taškus žemėlapyje.

Perkelti pele per norėdami pamatyti stoties vardą.

Tada spustelėkite, norėdami matyti oro stebėjimo ir prognozės.

Norėdami pakeisti žemėlapį: spustelėkite ant žalios mygtukų su juodo kryžiaus žemyn,; žalią mygtuką su brūkšneliu, jei norite nutolinti; arba žalių rodyklių gretimoms žemėlapius.


METAR-TAF: